createdAt,value
2023-04-29T00:01:10.237Z,10.38
2023-04-29T00:03:39.106Z,10.39
2023-04-29T00:06:08.355Z,10.41
2023-04-29T00:08:37.320Z,10.40
2023-04-29T00:11:06.659Z,10.40
2023-04-29T00:13:37.631Z,10.40
2023-04-29T00:16:07.145Z,10.39
2023-04-29T00:18:36.879Z,10.42
2023-04-29T00:21:07.103Z,10.43
2023-04-29T00:23:36.744Z,10.44
2023-04-29T00:26:05.746Z,10.46
2023-04-29T00:28:34.734Z,10.46
2023-04-29T00:31:04.830Z,10.49
2023-04-29T00:33:33.574Z,10.47
2023-04-29T00:36:05.264Z,10.56
2023-04-29T00:38:33.975Z,10.54
2023-04-29T00:41:03.350Z,10.53
2023-04-29T00:43:32.567Z,10.54
2023-04-29T00:46:01.388Z,10.52
2023-04-29T00:48:33.130Z,10.50
2023-04-29T00:51:01.948Z,10.55
2023-04-29T00:53:31.110Z,10.50
2023-04-29T00:56:00.968Z,10.51
2023-04-29T00:58:33.929Z,10.54
2023-04-29T01:01:02.812Z,10.50
2023-04-29T01:03:33.600Z,10.54
2023-04-29T01:06:10.885Z,10.50
2023-04-29T01:08:48.391Z,10.54
2023-04-29T01:11:17.940Z,10.49
2023-04-29T01:13:52.002Z,10.49
2023-04-29T01:16:25.459Z,10.37
2023-04-29T01:18:57.656Z,10.42
2023-04-29T01:21:26.768Z,10.40
2023-04-29T01:23:57.476Z,10.41
2023-04-29T01:26:26.755Z,10.43
2023-04-29T01:28:59.838Z,10.41
2023-04-29T01:31:33.328Z,10.40
2023-04-29T01:34:10.573Z,10.39
2023-04-29T01:36:46.227Z,10.38
2023-04-29T01:39:21.262Z,10.33
2023-04-29T01:41:56.182Z,10.35
2023-04-29T01:44:26.006Z,10.32
2023-04-29T01:46:55.504Z,10.32
2023-04-29T01:49:26.259Z,10.31
2023-04-29T01:51:55.608Z,10.29
2023-04-29T01:54:25.644Z,10.29
2023-04-29T01:56:54.431Z,10.29
2023-04-29T01:59:23.273Z,10.29
2023-04-29T02:01:52.615Z,10.28
2023-04-29T02:04:21.501Z,10.25
2023-04-29T02:06:50.171Z,10.23
2023-04-29T02:09:19.348Z,10.22
2023-04-29T02:11:55.645Z,10.16
2023-04-29T02:14:24.380Z,10.09
2023-04-29T02:16:59.303Z,10.03
2023-04-29T02:19:27.954Z,9.94
2023-04-29T02:21:56.912Z,9.69
2023-04-29T02:24:25.575Z,9.80
2023-04-29T02:26:57.553Z,9.71
2023-04-29T02:29:27.549Z,9.63
2023-04-29T02:31:56.865Z,9.55
2023-04-29T02:34:25.686Z,9.47
2023-04-29T02:36:54.817Z,9.42
2023-04-29T02:39:23.866Z,9.34
2023-04-29T02:41:57.509Z,9.27
2023-04-29T02:44:26.217Z,9.22
2023-04-29T02:46:54.664Z,9.13
2023-04-29T02:49:23.610Z,9.06
2023-04-29T02:51:53.098Z,8.99
2023-04-29T02:54:21.838Z,8.92
2023-04-29T02:56:51.151Z,8.86
2023-04-29T02:59:21.283Z,8.81
2023-04-29T03:01:50.712Z,8.75
2023-04-29T03:04:19.432Z,8.69
2023-04-29T03:06:48.615Z,8.64
2023-04-29T03:09:17.725Z,8.61
2023-04-29T03:11:46.811Z,8.61
2023-04-29T03:14:15.811Z,8.56
2023-04-29T03:16:46.372Z,8.50
2023-04-29T03:19:15.442Z,8.49
2023-04-29T03:21:44.762Z,8.48
2023-04-29T03:24:13.485Z,8.48
2023-04-29T03:26:43.198Z,8.46
2023-04-29T03:29:11.647Z,8.43
2023-04-29T03:31:40.480Z,8.39
2023-04-29T03:34:10.822Z,8.36
2023-04-29T03:36:39.688Z,8.34
2023-04-29T03:39:08.651Z,8.30
2023-04-29T03:41:37.668Z,8.26
2023-04-29T03:44:06.943Z,8.22
2023-04-29T03:46:35.658Z,8.17
2023-04-29T03:49:04.641Z,8.12
2023-04-29T03:51:37.691Z,8.03
2023-04-29T03:54:06.866Z,8.02
2023-04-29T03:56:35.610Z,8.05
2023-04-29T03:59:04.043Z,8.03
2023-04-29T04:01:32.752Z,7.99
2023-04-29T04:04:01.830Z,7.98
2023-04-29T04:06:31.634Z,7.98
2023-04-29T04:09:02.123Z,7.91
2023-04-29T04:11:30.870Z,7.91
2023-04-29T04:13:59.924Z,7.93
2023-04-29T04:16:28.556Z,7.98
2023-04-29T04:18:57.562Z,8.00
2023-04-29T04:21:27.585Z,8.05
2023-04-29T04:23:56.234Z,8.09
2023-04-29T04:26:26.522Z,8.16
2023-04-29T04:28:54.869Z,8.21
2023-04-29T04:31:23.397Z,8.28
2023-04-29T04:33:52.441Z,7.54
2023-04-29T04:36:21.091Z,8.41
2023-04-29T04:38:49.850Z,8.53
2023-04-29T04:41:18.445Z,8.62
2023-04-29T04:43:49.725Z,8.60
2023-04-29T04:46:18.485Z,8.65
2023-04-29T04:48:47.355Z,8.79
2023-04-29T04:51:16.284Z,8.42
2023-04-29T04:53:44.806Z,8.98
2023-04-29T04:56:13.371Z,8.96
2023-04-29T04:58:41.854Z,9.00
2023-04-29T05:01:12.719Z,9.06
2023-04-29T05:03:41.537Z,9.12
2023-04-29T05:06:10.855Z,9.11
2023-04-29T05:08:39.706Z,9.10
2023-04-29T05:11:08.324Z,9.15
2023-04-29T05:13:36.911Z,9.13
2023-04-29T05:16:06.654Z,9.11
2023-04-29T05:18:37.428Z,9.10
2023-04-29T05:21:06.403Z,9.12
2023-04-29T05:23:35.167Z,9.18
2023-04-29T05:26:03.845Z,9.29
2023-04-29T05:28:32.278Z,9.42
2023-04-29T05:31:01.345Z,9.56
2023-04-29T05:33:32.129Z,9.67
2023-04-29T05:36:02.693Z,9.72
2023-04-29T05:38:31.424Z,9.77
2023-04-29T05:41:00.338Z,9.87
2023-04-29T05:43:29.404Z,9.98
2023-04-29T05:45:58.566Z,10.13
2023-04-29T05:48:27.471Z,10.25
2023-04-29T05:50:58.556Z,10.43
2023-04-29T05:53:28.921Z,10.61
2023-04-29T05:55:58.839Z,10.72
2023-04-29T05:58:27.416Z,10.71
2023-04-29T06:00:59.898Z,10.73
2023-04-29T06:03:29.107Z,10.74
2023-04-29T06:05:58.812Z,10.73
2023-04-29T06:08:29.428Z,10.71
2023-04-29T06:10:58.050Z,10.74
2023-04-29T06:13:27.210Z,10.80
2023-04-29T06:15:56.132Z,10.86
2023-04-29T06:18:25.401Z,10.93
2023-04-29T06:20:54.152Z,10.95
2023-04-29T06:23:22.581Z,10.93
2023-04-29T06:25:53.398Z,10.96
2023-04-29T06:28:21.816Z,11.05
2023-04-29T06:30:51.007Z,11.12
2023-04-29T06:33:19.779Z,11.25
2023-04-29T06:35:48.500Z,11.35
2023-04-29T06:38:17.400Z,11.48
2023-04-29T06:40:46.861Z,11.58
2023-04-29T06:43:16.725Z,11.57
2023-04-29T06:45:48.356Z,11.54
2023-04-29T06:48:16.961Z,11.49
2023-04-29T06:50:51.766Z,11.53
2023-04-29T06:53:20.235Z,11.58
2023-04-29T06:55:49.280Z,11.66
2023-04-29T06:58:20.226Z,11.67
2023-04-29T07:00:50.697Z,11.79
2023-04-29T07:03:20.121Z,11.86
2023-04-29T07:05:48.778Z,11.96
2023-04-29T07:08:17.430Z,12.07
2023-04-29T07:10:46.984Z,12.26
2023-04-29T07:13:17.506Z,12.39
2023-04-29T07:15:47.859Z,12.51
2023-04-29T07:18:16.642Z,12.64
2023-04-29T07:20:46.298Z,12.66
2023-04-29T07:23:16.070Z,12.74
2023-04-29T07:25:44.922Z,12.72
2023-04-29T07:28:14.396Z,12.81
2023-04-29T07:30:43.142Z,12.83
2023-04-29T07:33:16.235Z,12.91
2023-04-29T07:35:44.915Z,12.94
2023-04-29T07:38:14.310Z,13.05
2023-04-29T07:40:45.440Z,12.97
2023-04-29T07:43:14.278Z,13.04
2023-04-29T07:45:42.960Z,13.15
2023-04-29T07:48:11.903Z,13.17
2023-04-29T07:50:43.131Z,13.27
2023-04-29T07:53:12.337Z,13.21
2023-04-29T07:55:41.112Z,13.15
2023-04-29T07:58:10.014Z,13.22
2023-04-29T08:00:39.047Z,13.21
2023-04-29T08:03:07.656Z,13.16
2023-04-29T08:05:36.719Z,13.12
2023-04-29T08:08:07.196Z,13.21
2023-04-29T08:10:41.434Z,13.48
2023-04-29T08:13:10.134Z,13.77
2023-04-29T08:15:39.233Z,14.13
2023-04-29T08:18:07.732Z,14.38
2023-04-29T08:20:36.566Z,14.65
2023-04-29T08:23:06.969Z,14.64
2023-04-29T08:25:35.779Z,14.86
2023-04-29T08:28:04.487Z,15.10
2023-04-29T08:30:33.890Z,15.05
2023-04-29T08:33:03.005Z,14.41
2023-04-29T08:35:37.886Z,14.73
2023-04-29T08:38:09.375Z,14.92
2023-04-29T08:40:38.833Z,15.02
2023-04-29T08:43:07.767Z,14.93
2023-04-29T08:45:37.171Z,15.28
2023-04-29T08:48:07.070Z,15.64
2023-04-29T08:50:39.705Z,15.66
2023-04-29T08:53:10.723Z,15.48
2023-04-29T08:55:43.161Z,15.61
2023-04-29T08:58:13.334Z,16.11
2023-04-29T09:00:42.570Z,16.01
2023-04-29T09:03:17.812Z,15.85
2023-04-29T09:05:51.010Z,15.92
2023-04-29T09:08:23.887Z,15.86
2023-04-29T09:10:53.583Z,15.63
2023-04-29T09:13:26.745Z,15.62
2023-04-29T09:15:55.424Z,15.62
2023-04-29T09:18:46.654Z,15.80
2023-04-29T09:21:22.362Z,16.04
2023-04-29T09:23:54.540Z,16.34
2023-04-29T09:26:24.429Z,16.05
2023-04-29T09:29:09.567Z,16.06
2023-04-29T09:31:39.852Z,16.36
2023-04-29T09:34:09.311Z,15.74
2023-04-29T09:36:48.844Z,15.68
2023-04-29T09:39:20.125Z,15.69
2023-04-29T09:42:09.861Z,15.93
2023-04-29T09:44:38.681Z,16.73
2023-04-29T09:47:08.467Z,16.94
2023-04-29T09:49:40.064Z,17.01
2023-04-29T09:52:11.406Z,17.16
2023-04-29T09:54:43.086Z,17.25
2023-04-29T09:57:13.160Z,16.89
2023-04-29T09:59:45.318Z,17.39
2023-04-29T10:02:16.937Z,17.48
2023-04-29T10:04:47.734Z,17.10
2023-04-29T10:07:17.443Z,16.86
2023-04-29T10:09:48.227Z,17.21
2023-04-29T10:12:17.983Z,17.72
2023-04-29T10:14:50.588Z,18.01
2023-04-29T10:17:26.160Z,17.56
2023-04-29T10:19:59.071Z,17.86
2023-04-29T10:22:31.603Z,18.11
2023-04-29T10:25:03.091Z,17.67
2023-04-29T10:27:32.857Z,18.06
2023-04-29T10:30:02.866Z,17.47
2023-04-29T10:32:39.892Z,17.54
2023-04-29T10:35:19.415Z,17.67
2023-04-29T10:37:49.838Z,17.49
2023-04-29T10:40:24.206Z,17.27
2023-04-29T10:42:54.132Z,16.95
2023-04-29T10:45:25.302Z,17.15
2023-04-29T10:48:13.496Z,17.44
2023-04-29T10:51:02.955Z,17.65
2023-04-29T10:53:32.335Z,17.84
2023-04-29T10:56:09.626Z,18.07
2023-04-29T10:58:48.812Z,18.11
2023-04-29T11:01:18.988Z,18.09
2023-04-29T11:03:59.018Z,18.03
2023-04-29T11:06:41.192Z,18.09
2023-04-29T11:09:12.387Z,18.51
2023-04-29T11:12:00.705Z,17.81
2023-04-29T11:14:32.810Z,18.32
2023-04-29T11:17:04.025Z,18.20
2023-04-29T11:19:34.305Z,18.70
2023-04-29T11:22:15.482Z,19.29
2023-04-29T11:24:52.376Z,19.64
2023-04-29T11:27:25.774Z,19.00
2023-04-29T11:29:58.940Z,18.89
2023-04-29T11:32:29.040Z,18.91
2023-04-29T11:35:09.086Z,19.31
2023-04-29T11:37:38.036Z,18.82
2023-04-29T11:40:08.005Z,18.46
2023-04-29T11:42:43.569Z,18.59
2023-04-29T11:45:13.011Z,18.62
2023-04-29T11:47:45.853Z,18.57
2023-04-29T11:50:17.165Z,19.17
2023-04-29T11:52:46.293Z,19.39
2023-04-29T11:55:18.199Z,19.80
2023-04-29T11:57:50.681Z,19.94
2023-04-29T12:00:19.669Z,19.73
2023-04-29T12:02:49.167Z,19.67
2023-04-29T12:05:19.634Z,19.41
2023-04-29T12:07:51.288Z,19.40
2023-04-29T12:10:21.603Z,19.57
2023-04-29T12:12:52.291Z,19.09
2023-04-29T12:15:21.136Z,19.32
2023-04-29T12:17:50.222Z,19.46
2023-04-29T12:20:19.357Z,19.09
2023-04-29T12:22:49.132Z,18.92
2023-04-29T12:25:18.790Z,19.36
2023-04-29T12:27:48.246Z,19.63
2023-04-29T12:30:21.145Z,19.95
2023-04-29T12:32:50.052Z,19.78
2023-04-29T12:35:19.841Z,19.79
2023-04-29T12:37:51.995Z,20.05
2023-04-29T12:40:21.851Z,19.95
2023-04-29T12:42:50.606Z,20.16
2023-04-29T12:45:33.239Z,20.32
2023-04-29T12:48:09.053Z,20.78
2023-04-29T12:50:44.517Z,21.16
2023-04-29T12:53:13.783Z,21.43
2023-04-29T12:55:43.457Z,21.80
2023-04-29T12:58:12.766Z,21.98
2023-04-29T13:00:47.074Z,21.48
2023-04-29T13:03:16.105Z,20.87
2023-04-29T13:05:45.013Z,20.56
2023-04-29T13:08:13.672Z,20.50
2023-04-29T13:10:43.173Z,20.76
2023-04-29T13:13:12.442Z,21.01
2023-04-29T13:15:46.580Z,20.85
2023-04-29T13:18:15.442Z,20.86
2023-04-29T13:20:44.740Z,20.67
2023-04-29T13:23:13.402Z,20.35
2023-04-29T13:25:42.349Z,19.76
2023-04-29T13:28:12.674Z,19.44
2023-04-29T13:30:42.376Z,19.26
2023-04-29T13:33:15.348Z,19.22
2023-04-29T13:35:44.089Z,19.07
2023-04-29T13:38:14.327Z,18.80
2023-04-29T13:40:51.393Z,18.66
2023-04-29T13:43:31.139Z,18.80
2023-04-29T13:46:07.522Z,18.81
2023-04-29T13:54:29.320Z,18.74
2023-04-29T13:57:21.528Z,18.39
2023-04-29T14:04:25.107Z,18.04
2023-04-29T14:06:54.132Z,18.06
2023-04-29T14:09:24.051Z,17.97
2023-04-29T14:11:53.232Z,17.58
2023-04-29T14:14:21.922Z,18.21
2023-04-29T14:16:50.888Z,18.21
2023-04-29T14:19:19.383Z,18.18
2023-04-29T14:21:50.213Z,18.07
2023-04-29T14:24:20.380Z,17.84
2023-04-29T14:26:49.704Z,17.10
2023-04-29T14:29:19.019Z,16.79
2023-04-29T14:31:47.689Z,16.47
2023-04-29T14:34:16.567Z,16.43
2023-04-29T14:36:46.645Z,16.37
2023-04-29T14:39:17.566Z,16.29
2023-04-29T14:41:46.465Z,16.20
2023-04-29T14:44:15.784Z,15.95
2023-04-29T14:46:44.647Z,15.90
2023-04-29T14:49:13.913Z,15.93
2023-04-29T14:51:43.325Z,16.15
2023-04-29T14:54:12.711Z,16.18
2023-04-29T14:56:42.948Z,16.38
2023-04-29T14:59:12.240Z,16.63
2023-04-29T15:01:41.137Z,16.88
2023-04-29T15:04:10.353Z,16.99
2023-04-29T15:06:39.408Z,17.10
2023-04-29T15:09:14.739Z,17.07
2023-04-29T15:11:45.041Z,17.23
2023-04-29T15:14:14.149Z,17.54
2023-04-29T15:16:43.006Z,17.87
2023-04-29T15:19:12.076Z,18.25
2023-04-29T15:21:40.910Z,18.56
2023-04-29T15:24:09.879Z,18.26
2023-04-29T15:26:39.077Z,18.61
2023-04-29T15:29:09.310Z,18.95
2023-04-29T15:31:38.501Z,19.34
2023-04-29T15:34:07.842Z,19.47
2023-04-29T15:36:36.499Z,19.38
2023-04-29T15:39:05.330Z,19.29
2023-04-29T15:41:34.921Z,19.21
2023-04-29T15:44:04.091Z,19.11
2023-04-29T15:46:34.119Z,18.82
2023-04-29T15:49:04.774Z,18.57
2023-04-29T15:51:33.526Z,18.45
2023-04-29T15:54:02.606Z,18.30
2023-04-29T15:56:32.290Z,17.71
2023-04-29T15:59:01.212Z,17.97
2023-04-29T16:01:29.868Z,17.81
2023-04-29T16:04:00.767Z,17.78
2023-04-29T16:06:29.623Z,17.75
2023-04-29T16:08:58.662Z,17.63
2023-04-29T16:11:28.047Z,17.61
2023-04-29T16:13:57.016Z,17.44
2023-04-29T16:16:25.775Z,17.28
2023-04-29T16:18:54.982Z,17.10
2023-04-29T16:21:26.006Z,17.00
2023-04-29T16:23:55.268Z,16.90
2023-04-29T16:26:23.985Z,16.83
2023-04-29T16:28:53.565Z,16.68
2023-04-29T16:31:22.939Z,16.49
2023-04-29T16:33:51.788Z,16.37
2023-04-29T16:36:22.844Z,16.20
2023-04-29T16:38:55.366Z,16.07
2023-04-29T16:41:24.350Z,15.91
2023-04-29T16:43:53.660Z,15.79
2023-04-29T16:46:22.862Z,15.71
2023-04-29T16:48:52.375Z,15.66
2023-04-29T16:51:21.124Z,15.58
2023-04-29T16:53:49.960Z,15.49
2023-04-29T16:56:20.094Z,15.41
2023-04-29T16:58:49.210Z,15.31
2023-04-29T17:01:19.714Z,15.14
2023-04-29T17:03:49.023Z,15.02
2023-04-29T17:06:18.048Z,15.03
2023-04-29T17:08:49.348Z,15.01
2023-04-29T17:11:20.859Z,14.92
2023-04-29T17:13:50.763Z,14.90
2023-04-29T17:16:19.401Z,14.84
2023-04-29T17:18:48.230Z,14.78
2023-04-29T17:21:17.000Z,14.68
2023-04-29T17:23:45.752Z,14.63
2023-04-29T17:26:14.689Z,14.60
2023-04-29T17:28:44.803Z,14.52
2023-04-29T17:31:15.469Z,14.48
2023-04-29T17:33:54.965Z,14.43
2023-04-29T17:36:23.666Z,14.30
2023-04-29T17:38:52.776Z,14.22
2023-04-29T17:41:21.333Z,14.12
2023-04-29T17:43:52.362Z,14.01
2023-04-29T17:46:21.182Z,13.94
2023-04-29T17:48:50.032Z,13.79
2023-04-29T17:51:18.650Z,13.53
2023-04-29T17:53:47.519Z,13.35
2023-04-29T17:56:16.542Z,13.19
2023-04-29T17:58:45.490Z,13.12
2023-04-29T18:01:16.191Z,13.08
2023-04-29T18:03:47.129Z,13.06
2023-04-29T18:06:16.206Z,13.11
2023-04-29T18:08:45.132Z,13.09
2023-04-29T18:11:14.544Z,13.18
2023-04-29T18:13:43.833Z,13.17
2023-04-29T18:16:13.116Z,13.05
2023-04-29T18:18:43.420Z,13.14
2023-04-29T18:21:12.619Z,13.14
2023-04-29T18:23:41.318Z,13.18
2023-04-29T18:26:10.566Z,13.21
2023-04-29T18:28:39.238Z,13.23
2023-04-29T18:31:08.610Z,13.20
2023-04-29T18:33:37.695Z,13.15
2023-04-29T18:36:08.421Z,13.07
2023-04-29T18:38:37.234Z,12.90
2023-04-29T18:41:08.850Z,12.73
2023-04-29T18:43:37.555Z,12.68
2023-04-29T18:46:06.475Z,12.71
2023-04-29T18:48:36.175Z,12.77
2023-04-29T18:51:06.326Z,12.77
2023-04-29T18:53:36.521Z,12.80
2023-04-29T18:56:06.842Z,12.82
2023-04-29T18:58:36.349Z,12.83
2023-04-29T19:01:06.252Z,12.80
2023-04-29T19:03:34.663Z,12.71
2023-04-29T19:06:05.229Z,12.70
2023-04-29T19:08:33.827Z,12.74
2023-04-29T19:11:04.293Z,12.66
2023-04-29T19:13:32.766Z,12.67
2023-04-29T19:16:02.267Z,12.67
2023-04-29T19:18:31.043Z,12.66
2023-04-29T19:21:00.152Z,12.65
2023-04-29T19:23:28.789Z,12.62
2023-04-29T19:25:57.603Z,12.58
2023-04-29T19:28:28.386Z,12.55
2023-04-29T19:30:57.982Z,12.54
2023-04-29T19:33:27.073Z,12.48
2023-04-29T19:35:56.237Z,12.43
2023-04-29T19:38:25.796Z,12.38
2023-04-29T19:40:57.282Z,12.37
2023-04-29T19:43:25.697Z,12.39
2023-04-29T19:45:59.207Z,12.39
2023-04-29T19:48:28.106Z,12.39
2023-04-29T19:50:59.792Z,12.33
2023-04-29T19:53:28.453Z,12.29
2023-04-29T19:55:57.532Z,12.20
2023-04-29T19:58:26.382Z,12.21
2023-04-29T20:00:56.191Z,12.15
2023-04-29T20:03:26.875Z,12.08
2023-04-29T20:05:56.472Z,12.14
2023-04-29T20:08:25.514Z,12.13
2023-04-29T20:10:54.499Z,12.07
2023-04-29T20:13:23.373Z,12.07
2023-04-29T20:15:52.275Z,12.03
2023-04-29T20:18:21.239Z,12.01
2023-04-29T20:20:51.946Z,12.02
2023-04-29T20:23:20.329Z,12.01
2023-04-29T20:25:49.704Z,12.01
2023-04-29T20:28:18.239Z,12.00
2023-04-29T20:30:47.048Z,12.00
2023-04-29T20:33:16.212Z,12.02
2023-04-29T20:35:47.548Z,12.01
2023-04-29T20:38:17.823Z,12.00
2023-04-29T20:40:46.537Z,12.01
2023-04-29T20:43:15.336Z,12.02
2023-04-29T20:45:46.270Z,11.99
2023-04-29T20:48:15.088Z,12.00
2023-04-29T20:50:44.321Z,11.96
2023-04-29T20:53:17.205Z,11.97
2023-04-29T20:55:46.090Z,11.98
2023-04-29T20:58:16.669Z,11.99
2023-04-29T21:00:46.322Z,12.00
2023-04-29T21:03:15.367Z,11.99
2023-04-29T21:05:45.154Z,11.96
2023-04-29T21:08:13.963Z,11.96
2023-04-29T21:10:44.053Z,11.95
2023-04-29T21:13:12.769Z,11.88
2023-04-29T21:15:43.617Z,11.91
2023-04-29T21:18:14.587Z,11.93
2023-04-29T21:20:43.771Z,11.93
2023-04-29T21:23:12.471Z,11.93
2023-04-29T21:25:41.602Z,11.92
2023-04-29T21:28:11.991Z,11.89
2023-04-29T21:30:42.727Z,11.89
2023-04-29T21:33:12.511Z,11.85
2023-04-29T21:35:42.448Z,11.81
2023-04-29T21:38:11.323Z,11.79
2023-04-29T21:40:42.830Z,11.77
2023-04-29T21:43:13.504Z,11.75
2023-04-29T21:45:43.514Z,11.70
2023-04-29T21:48:16.500Z,11.64
2023-04-29T21:50:46.506Z,11.62
2023-04-29T21:53:16.688Z,11.63
2023-04-29T21:55:46.040Z,11.64
2023-04-29T21:58:16.337Z,11.63
2023-04-29T22:00:58.362Z,11.61
2023-04-29T22:03:27.351Z,11.61
2023-04-29T22:05:56.614Z,11.55
2023-04-29T22:08:25.388Z,11.50
2023-04-29T22:10:54.279Z,11.48
2023-04-29T22:13:24.322Z,11.44
2023-04-29T22:15:53.491Z,11.46
2023-04-29T22:18:22.258Z,11.35
2023-04-29T22:20:51.901Z,11.31
2023-04-29T22:23:20.990Z,11.27
2023-04-29T22:25:50.041Z,11.24
2023-04-29T22:28:18.972Z,11.21
2023-04-29T22:30:49.336Z,11.25
2023-04-29T22:33:18.142Z,11.19
2023-04-29T22:35:47.235Z,11.13
2023-04-29T22:38:16.014Z,11.10
2023-04-29T22:40:51.213Z,11.08
2023-04-29T22:43:19.773Z,11.02
2023-04-29T22:45:54.043Z,10.88
2023-04-29T22:48:24.583Z,10.82
2023-04-29T22:50:56.410Z,10.81
2023-04-29T22:53:25.967Z,10.80
2023-04-29T22:55:57.061Z,10.75
2023-04-29T22:58:26.853Z,10.68
2023-04-29T23:00:58.175Z,10.65
2023-04-29T23:03:27.058Z,10.60
2023-04-29T23:05:59.720Z,10.46
2023-04-29T23:08:28.840Z,10.47
2023-04-29T23:10:57.875Z,10.49
2023-04-29T23:13:29.444Z,10.48
2023-04-29T23:16:01.725Z,10.48
2023-04-29T23:18:30.986Z,10.46
2023-04-29T23:20:59.777Z,10.41
2023-04-29T23:23:28.433Z,10.39
2023-04-29T23:25:57.293Z,10.36
2023-04-29T23:28:26.211Z,10.31
2023-04-29T23:30:55.131Z,10.25
2023-04-29T23:33:25.596Z,10.21
2023-04-29T23:35:54.920Z,10.17
2023-04-29T23:38:23.912Z,10.22
2023-04-29T23:40:55.052Z,10.25
2023-04-29T23:43:24.031Z,10.32
2023-04-29T23:45:53.132Z,10.25
2023-04-29T23:48:23.282Z,10.21
2023-04-29T23:50:53.388Z,10.19
2023-04-29T23:53:21.990Z,10.16
2023-04-29T23:55:50.762Z,10.12
2023-04-29T23:58:19.852Z,10.11
